sensor_id;sensor_type;location;lat;lon;timestamp;P1;durP1;ratioP1;P2;durP2;ratioP2
12751;SDS011;6440;44.616;2.032;2022-09-25T00:00:46;0.15;;;0.15;;
12751;SDS011;6440;44.616;2.032;2022-09-25T00:03:14;0.20;;;0.20;;
12751;SDS011;6440;44.616;2.032;2022-09-25T00:05:42;0.20;;;0.20;;
12751;SDS011;6440;44.616;2.032;2022-09-25T00:08:09;0.10;;;0.10;;
12751;SDS011;6440;44.616;2.032;2022-09-25T00:10:41;0.20;;;0.20;;
12751;SDS011;6440;44.616;2.032;2022-09-25T00:13:08;0.20;;;0.20;;
12751;SDS011;6440;44.616;2.032;2022-09-25T00:15:36;0.20;;;0.20;;
12751;SDS011;6440;44.616;2.032;2022-09-25T00:18:04;0.20;;;0.20;;
12751;SDS011;6440;44.616;2.032;2022-09-25T00:20:33;0.20;;;0.20;;
12751;SDS011;6440;44.616;2.032;2022-09-25T00:23:02;0.20;;;0.20;;
12751;SDS011;6440;44.616;2.032;2022-09-25T00:25:31;0.20;;;0.20;;
12751;SDS011;6440;44.616;2.032;2022-09-25T00:28:00;0.20;;;0.20;;
12751;SDS011;6440;44.616;2.032;2022-09-25T00:30:28;0.20;;;0.20;;
12751;SDS011;6440;44.616;2.032;2022-09-25T00:32:57;0.10;;;0.10;;
12751;SDS011;6440;44.616;2.032;2022-09-25T00:35:26;0.20;;;0.20;;
12751;SDS011;6440;44.616;2.032;2022-09-25T00:37:55;0.17;;;0.17;;
12751;SDS011;6440;44.616;2.032;2022-09-25T00:40:24;0.20;;;0.20;;
12751;SDS011;6440;44.616;2.032;2022-09-25T00:42:53;0.20;;;0.20;;
12751;SDS011;6440;44.616;2.032;2022-09-25T00:45:22;0.10;;;0.10;;
12751;SDS011;6440;44.616;2.032;2022-09-25T00:47:54;0.20;;;0.20;;
12751;SDS011;6440;44.616;2.032;2022-09-25T00:50:27;0.10;;;0.10;;
12751;SDS011;6440;44.616;2.032;2022-09-25T00:53:01;0.10;;;0.10;;
12751;SDS011;6440;44.616;2.032;2022-09-25T00:55:35;0.10;;;0.10;;
12751;SDS011;6440;44.616;2.032;2022-09-25T00:58:03;0.10;;;0.10;;
12751;SDS011;6440;44.616;2.032;2022-09-25T01:00:31;0.20;;;0.20;;
12751;SDS011;6440;44.616;2.032;2022-09-25T01:02:59;0.20;;;0.20;;
12751;SDS011;6440;44.616;2.032;2022-09-25T01:05:28;0.22;;;0.22;;
12751;SDS011;6440;44.616;2.032;2022-09-25T01:07:55;0.10;;;0.10;;
12751;SDS011;6440;44.616;2.032;2022-09-25T01:10:23;0.20;;;0.20;;
12751;SDS011;6440;44.616;2.032;2022-09-25T01:12:51;0.17;;;0.17;;
12751;SDS011;6440;44.616;2.032;2022-09-25T01:15:20;0.10;;;0.10;;
12751;SDS011;6440;44.616;2.032;2022-09-25T01:17:53;0.20;;;0.20;;
12751;SDS011;6440;44.616;2.032;2022-09-25T01:20:34;0.20;;;0.20;;
12751;SDS011;6440;44.616;2.032;2022-09-25T01:23:15;0.20;;;0.20;;
12751;SDS011;6440;44.616;2.032;2022-09-25T01:26:08;0.20;;;0.20;;
12751;SDS011;6440;44.616;2.032;2022-09-25T01:28:53;0.10;;;0.10;;
12751;SDS011;6440;44.616;2.032;2022-09-25T01:31:32;0.20;;;0.20;;
12751;SDS011;6440;44.616;2.032;2022-09-25T01:34:21;0.20;;;0.20;;
12751;SDS011;6440;44.616;2.032;2022-09-25T01:36:51;0.10;;;0.10;;
12751;SDS011;6440;44.616;2.032;2022-09-25T01:39:20;0.20;;;0.20;;
12751;SDS011;6440;44.616;2.032;2022-09-25T01:41:50;0.10;;;0.10;;
12751;SDS011;6440;44.616;2.032;2022-09-25T01:44:26;0.10;;;0.10;;
12751;SDS011;6440;44.616;2.032;2022-09-25T01:46:56;0.10;;;0.10;;
12751;SDS011;6440;44.616;2.032;2022-09-25T01:49:27;0.10;;;0.10;;
12751;SDS011;6440;44.616;2.032;2022-09-25T01:51:55;0.10;;;0.10;;
12751;SDS011;6440;44.616;2.032;2022-09-25T01:54:23;0.10;;;0.10;;
12751;SDS011;6440;44.616;2.032;2022-09-25T01:56:57;0.10;;;0.10;;
12751;SDS011;6440;44.616;2.032;2022-09-25T01:59:27;0.20;;;0.20;;
12751;SDS011;6440;44.616;2.032;2022-09-25T02:01:57;0.20;;;0.20;;
12751;SDS011;6440;44.616;2.032;2022-09-25T02:04:29;0.15;;;0.15;;
12751;SDS011;6440;44.616;2.032;2022-09-25T02:06:57;0.20;;;0.20;;
12751;SDS011;6440;44.616;2.032;2022-09-25T02:09:27;0.10;;;0.10;;
12751;SDS011;6440;44.616;2.032;2022-09-25T02:11:59;0.10;;;0.10;;
12751;SDS011;6440;44.616;2.032;2022-09-25T02:14:27;0.20;;;0.20;;
12751;SDS011;6440;44.616;2.032;2022-09-25T02:17:04;0.10;;;0.10;;
12751;SDS011;6440;44.616;2.032;2022-09-25T02:19:31;0.10;;;0.10;;
12751;SDS011;6440;44.616;2.032;2022-09-25T02:22:06;0.10;;;0.10;;
12751;SDS011;6440;44.616;2.032;2022-09-25T02:24:40;0.10;;;0.10;;
12751;SDS011;6440;44.616;2.032;2022-09-25T02:27:07;0.10;;;0.10;;
12751;SDS011;6440;44.616;2.032;2022-09-25T02:29:35;0.10;;;0.10;;
12751;SDS011;6440;44.616;2.032;2022-09-25T02:32:05;0.17;;;0.17;;
12751;SDS011;6440;44.616;2.032;2022-09-25T02:34:32;0.10;;;0.10;;
12751;SDS011;6440;44.616;2.032;2022-09-25T02:37:00;0.10;;;0.10;;
12751;SDS011;6440;44.616;2.032;2022-09-25T02:39:29;0.10;;;0.10;;
12751;SDS011;6440;44.616;2.032;2022-09-25T02:42:06;0.20;;;0.20;;
12751;SDS011;6440;44.616;2.032;2022-09-25T02:44:45;0.10;;;0.10;;
12751;SDS011;6440;44.616;2.032;2022-09-25T02:50:16;0.10;;;0.10;;
12751;SDS011;6440;44.616;2.032;2022-09-25T02:52:45;0.13;;;0.13;;
12751;SDS011;6440;44.616;2.032;2022-09-25T02:55:33;0.10;;;0.10;;
12751;SDS011;6440;44.616;2.032;2022-09-25T02:58:01;0.10;;;0.10;;
12751;SDS011;6440;44.616;2.032;2022-09-25T03:00:42;0.10;;;0.10;;
12751;SDS011;6440;44.616;2.032;2022-09-25T03:03:11;0.10;;;0.10;;
12751;SDS011;6440;44.616;2.032;2022-09-25T03:05:38;0.10;;;0.10;;
12751;SDS011;6440;44.616;2.032;2022-09-25T03:08:06;0.10;;;0.10;;
12751;SDS011;6440;44.616;2.032;2022-09-25T03:10:39;0.10;;;0.10;;
12751;SDS011;6440;44.616;2.032;2022-09-25T03:13:12;0.10;;;0.10;;
12751;SDS011;6440;44.616;2.032;2022-09-25T03:15:40;0.15;;;0.15;;
12751;SDS011;6440;44.616;2.032;2022-09-25T03:18:08;0.20;;;0.20;;
12751;SDS011;6440;44.616;2.032;2022-09-25T03:20:36;0.10;;;0.10;;
12751;SDS011;6440;44.616;2.032;2022-09-25T03:23:05;0.10;;;0.10;;
12751;SDS011;6440;44.616;2.032;2022-09-25T03:25:33;0.17;;;0.17;;
12751;SDS011;6440;44.616;2.032;2022-09-25T03:28:02;0.10;;;0.10;;
12751;SDS011;6440;44.616;2.032;2022-09-25T03:30:30;0.10;;;0.10;;
12751;SDS011;6440;44.616;2.032;2022-09-25T03:32:59;0.10;;;0.10;;
12751;SDS011;6440;44.616;2.032;2022-09-25T03:35:28;0.10;;;0.10;;
12751;SDS011;6440;44.616;2.032;2022-09-25T03:37:57;0.10;;;0.10;;
12751;SDS011;6440;44.616;2.032;2022-09-25T03:40:26;0.10;;;0.10;;
12751;SDS011;6440;44.616;2.032;2022-09-25T03:42:55;0.10;;;0.10;;
12751;SDS011;6440;44.616;2.032;2022-09-25T03:45:24;0.10;;;0.10;;
12751;SDS011;6440;44.616;2.032;2022-09-25T03:47:53;0.10;;;0.10;;
12751;SDS011;6440;44.616;2.032;2022-09-25T03:50:21;0.10;;;0.10;;
12751;SDS011;6440;44.616;2.032;2022-09-25T03:52:50;0.10;;;0.10;;
12751;SDS011;6440;44.616;2.032;2022-09-25T03:55:19;0.10;;;0.10;;
12751;SDS011;6440;44.616;2.032;2022-09-25T03:57:48;0.10;;;0.10;;
12751;SDS011;6440;44.616;2.032;2022-09-25T04:00:17;0.10;;;0.10;;
12751;SDS011;6440;44.616;2.032;2022-09-25T04:02:46;0.10;;;0.10;;
12751;SDS011;6440;44.616;2.032;2022-09-25T04:05:15;0.10;;;0.10;;
12751;SDS011;6440;44.616;2.032;2022-09-25T04:07:43;0.10;;;0.10;;
12751;SDS011;6440;44.616;2.032;2022-09-25T04:10:12;0.10;;;0.10;;
12751;SDS011;6440;44.616;2.032;2022-09-25T04:12:41;0.10;;;0.10;;
12751;SDS011;6440;44.616;2.032;2022-09-25T04:15:10;0.10;;;0.10;;
12751;SDS011;6440;44.616;2.032;2022-09-25T04:17:38;0.10;;;0.10;;
12751;SDS011;6440;44.616;2.032;2022-09-25T04:20:07;0.10;;;0.10;;
12751;SDS011;6440;44.616;2.032;2022-09-25T04:22:37;0.10;;;0.10;;
12751;SDS011;6440;44.616;2.032;2022-09-25T04:25:06;0.20;;;0.20;;
12751;SDS011;6440;44.616;2.032;2022-09-25T04:27:35;0.10;;;0.10;;
12751;SDS011;6440;44.616;2.032;2022-09-25T04:30:05;0.10;;;0.10;;
12751;SDS011;6440;44.616;2.032;2022-09-25T04:32:35;0.17;;;0.17;;
12751;SDS011;6440;44.616;2.032;2022-09-25T04:35:09;0.10;;;0.10;;
12751;SDS011;6440;44.616;2.032;2022-09-25T04:37:38;0.10;;;0.10;;
12751;SDS011;6440;44.616;2.032;2022-09-25T04:40:08;0.10;;;0.10;;
12751;SDS011;6440;44.616;2.032;2022-09-25T04:42:37;0.10;;;0.10;;
12751;SDS011;6440;44.616;2.032;2022-09-25T04:45:06;0.10;;;0.10;;
12751;SDS011;6440;44.616;2.032;2022-09-25T04:47:35;0.10;;;0.10;;
12751;SDS011;6440;44.616;2.032;2022-09-25T04:50:04;0.10;;;0.10;;
12751;SDS011;6440;44.616;2.032;2022-09-25T04:52:34;0.10;;;0.10;;
12751;SDS011;6440;44.616;2.032;2022-09-25T04:55:03;0.10;;;0.10;;
12751;SDS011;6440;44.616;2.032;2022-09-25T04:57:33;0.10;;;0.10;;
12751;SDS011;6440;44.616;2.032;2022-09-25T05:00:02;0.10;;;0.10;;
12751;SDS011;6440;44.616;2.032;2022-09-25T05:02:30;0.10;;;0.10;;
12751;SDS011;6440;44.616;2.032;2022-09-25T05:04:59;0.10;;;0.10;;
12751;SDS011;6440;44.616;2.032;2022-09-25T05:07:28;0.10;;;0.10;;
12751;SDS011;6440;44.616;2.032;2022-09-25T05:09:57;0.10;;;0.10;;
12751;SDS011;6440;44.616;2.032;2022-09-25T05:12:26;0.10;;;0.10;;
12751;SDS011;6440;44.616;2.032;2022-09-25T05:14:55;0.10;;;0.10;;
12751;SDS011;6440;44.616;2.032;2022-09-25T05:17:24;0.10;;;0.10;;
12751;SDS011;6440;44.616;2.032;2022-09-25T05:19:53;0.10;;;0.10;;
12751;SDS011;6440;44.616;2.032;2022-09-25T05:22:22;0.10;;;0.10;;
12751;SDS011;6440;44.616;2.032;2022-09-25T05:24:51;0.10;;;0.10;;
12751;SDS011;6440;44.616;2.032;2022-09-25T05:27:20;0.10;;;0.10;;
12751;SDS011;6440;44.616;2.032;2022-09-25T05:29:49;0.10;;;0.10;;
12751;SDS011;6440;44.616;2.032;2022-09-25T05:32:18;0.10;;;0.10;;
12751;SDS011;6440;44.616;2.032;2022-09-25T05:34:47;0.20;;;0.20;;
12751;SDS011;6440;44.616;2.032;2022-09-25T05:37:16;0.10;;;0.10;;
12751;SDS011;6440;44.616;2.032;2022-09-25T05:39:45;0.10;;;0.10;;
12751;SDS011;6440;44.616;2.032;2022-09-25T05:42:14;0.10;;;0.10;;
12751;SDS011;6440;44.616;2.032;2022-09-25T05:44:43;0.10;;;0.10;;
12751;SDS011;6440;44.616;2.032;2022-09-25T05:47:11;0.10;;;0.10;;
12751;SDS011;6440;44.616;2.032;2022-09-25T05:49:40;0.10;;;0.10;;
12751;SDS011;6440;44.616;2.032;2022-09-25T05:52:09;0.10;;;0.10;;
12751;SDS011;6440;44.616;2.032;2022-09-25T05:54:38;0.10;;;0.10;;
12751;SDS011;6440;44.616;2.032;2022-09-25T05:57:06;0.10;;;0.10;;
12751;SDS011;6440;44.616;2.032;2022-09-25T05:59:35;0.10;;;0.10;;
12751;SDS011;6440;44.616;2.032;2022-09-25T06:02:04;0.10;;;0.10;;
12751;SDS011;6440;44.616;2.032;2022-09-25T06:04:33;0.10;;;0.10;;
12751;SDS011;6440;44.616;2.032;2022-09-25T06:07:02;0.10;;;0.10;;
12751;SDS011;6440;44.616;2.032;2022-09-25T06:09:31;0.10;;;0.10;;
12751;SDS011;6440;44.616;2.032;2022-09-25T06:12:00;0.10;;;0.10;;
12751;SDS011;6440;44.616;2.032;2022-09-25T06:14:28;0.10;;;0.10;;
12751;SDS011;6440;44.616;2.032;2022-09-25T06:16:57;0.10;;;0.10;;
12751;SDS011;6440;44.616;2.032;2022-09-25T06:19:26;0.10;;;0.10;;
12751;SDS011;6440;44.616;2.032;2022-09-25T06:21:55;0.10;;;0.10;;
12751;SDS011;6440;44.616;2.032;2022-09-25T06:24:24;0.10;;;0.10;;
12751;SDS011;6440;44.616;2.032;2022-09-25T06:26:53;0.10;;;0.10;;
12751;SDS011;6440;44.616;2.032;2022-09-25T06:29:22;0.10;;;0.10;;
12751;SDS011;6440;44.616;2.032;2022-09-25T06:31:51;0.10;;;0.10;;
12751;SDS011;6440;44.616;2.032;2022-09-25T06:34:20;0.10;;;0.10;;
12751;SDS011;6440;44.616;2.032;2022-09-25T06:36:49;0.10;;;0.10;;
12751;SDS011;6440;44.616;2.032;2022-09-25T06:39:18;0.10;;;0.10;;
12751;SDS011;6440;44.616;2.032;2022-09-25T06:41:47;0.10;;;0.10;;
12751;SDS011;6440;44.616;2.032;2022-09-25T06:44:15;0.10;;;0.10;;
12751;SDS011;6440;44.616;2.032;2022-09-25T06:46:47;0.10;;;0.10;;
12751;SDS011;6440;44.616;2.032;2022-09-25T06:49:16;0.10;;;0.10;;
12751;SDS011;6440;44.616;2.032;2022-09-25T06:51:45;0.10;;;0.10;;
12751;SDS011;6440;44.616;2.032;2022-09-25T06:54:13;0.15;;;0.15;;
12751;SDS011;6440;44.616;2.032;2022-09-25T06:56:42;0.10;;;0.10;;
12751;SDS011;6440;44.616;2.032;2022-09-25T06:59:11;0.10;;;0.10;;
12751;SDS011;6440;44.616;2.032;2022-09-25T07:01:39;0.10;;;0.10;;
12751;SDS011;6440;44.616;2.032;2022-09-25T07:04:08;0.10;;;0.10;;
12751;SDS011;6440;44.616;2.032;2022-09-25T07:06:37;0.10;;;0.10;;
12751;SDS011;6440;44.616;2.032;2022-09-25T07:09:06;0.10;;;0.10;;
12751;SDS011;6440;44.616;2.032;2022-09-25T07:11:35;0.10;;;0.10;;
12751;SDS011;6440;44.616;2.032;2022-09-25T07:14:04;0.10;;;0.10;;
12751;SDS011;6440;44.616;2.032;2022-09-25T07:16:33;0.10;;;0.10;;
12751;SDS011;6440;44.616;2.032;2022-09-25T07:19:02;0.10;;;0.10;;
12751;SDS011;6440;44.616;2.032;2022-09-25T07:21:31;0.13;;;0.13;;
12751;SDS011;6440;44.616;2.032;2022-09-25T07:24:00;0.10;;;0.10;;
12751;SDS011;6440;44.616;2.032;2022-09-25T07:26:29;0.10;;;0.10;;
12751;SDS011;6440;44.616;2.032;2022-09-25T07:28:59;0.10;;;0.10;;
12751;SDS011;6440;44.616;2.032;2022-09-25T07:31:28;0.10;;;0.10;;
12751;SDS011;6440;44.616;2.032;2022-09-25T07:33:55;0.10;;;0.10;;
12751;SDS011;6440;44.616;2.032;2022-09-25T07:36:23;0.10;;;0.10;;
12751;SDS011;6440;44.616;2.032;2022-09-25T07:38:52;0.10;;;0.10;;
12751;SDS011;6440;44.616;2.032;2022-09-25T07:41:21;0.10;;;0.10;;
12751;SDS011;6440;44.616;2.032;2022-09-25T07:43:51;0.10;;;0.10;;
12751;SDS011;6440;44.616;2.032;2022-09-25T07:46:22;0.10;;;0.10;;
12751;SDS011;6440;44.616;2.032;2022-09-25T07:48:49;0.10;;;0.10;;
12751;SDS011;6440;44.616;2.032;2022-09-25T07:51:19;0.10;;;0.10;;
12751;SDS011;6440;44.616;2.032;2022-09-25T07:53:48;0.10;;;0.10;;
12751;SDS011;6440;44.616;2.032;2022-09-25T07:56:16;0.10;;;0.10;;
12751;SDS011;6440;44.616;2.032;2022-09-25T07:58:45;0.10;;;0.10;;
12751;SDS011;6440;44.616;2.032;2022-09-25T08:01:14;0.10;;;0.10;;
12751;SDS011;6440;44.616;2.032;2022-09-25T08:03:43;0.03;;;0.03;;
12751;SDS011;6440;44.616;2.032;2022-09-25T08:06:12;0.10;;;0.10;;
12751;SDS011;6440;44.616;2.032;2022-09-25T08:08:42;0.08;;;0.08;;
12751;SDS011;6440;44.616;2.032;2022-09-25T08:11:11;0.10;;;0.10;;
12751;SDS011;6440;44.616;2.032;2022-09-25T08:13:39;0.00;;;0.00;;
12751;SDS011;6440;44.616;2.032;2022-09-25T08:16:09;0.10;;;0.10;;
12751;SDS011;6440;44.616;2.032;2022-09-25T08:18:39;0.10;;;0.10;;
12751;SDS011;6440;44.616;2.032;2022-09-25T08:21:08;0.00;;;0.00;;
12751;SDS011;6440;44.616;2.032;2022-09-25T08:23:35;0.20;;;0.20;;
12751;SDS011;6440;44.616;2.032;2022-09-25T08:26:03;0.10;;;0.10;;
12751;SDS011;6440;44.616;2.032;2022-09-25T08:28:33;0.10;;;0.10;;
12751;SDS011;6440;44.616;2.032;2022-09-25T08:31:01;0.10;;;0.10;;
12751;SDS011;6440;44.616;2.032;2022-09-25T08:33:29;0.10;;;0.10;;
12751;SDS011;6440;44.616;2.032;2022-09-25T08:35:59;0.10;;;0.10;;
12751;SDS011;6440;44.616;2.032;2022-09-25T08:38:25;0.10;;;0.10;;
12751;SDS011;6440;44.616;2.032;2022-09-25T08:41:03;0.10;;;0.10;;
12751;SDS011;6440;44.616;2.032;2022-09-25T08:46:34;0.10;;;0.10;;
12751;SDS011;6440;44.616;2.032;2022-09-25T08:49:07;0.10;;;0.10;;
12751;SDS011;6440;44.616;2.032;2022-09-25T08:51:38;0.10;;;0.10;;
12751;SDS011;6440;44.616;2.032;2022-09-25T08:54:05;0.00;;;0.00;;
12751;SDS011;6440;44.616;2.032;2022-09-25T08:56:33;0.10;;;0.10;;
12751;SDS011;6440;44.616;2.032;2022-09-25T08:59:04;0.10;;;0.10;;
12751;SDS011;6440;44.616;2.032;2022-09-25T09:01:40;0.00;;;0.00;;
12751;SDS011;6440;44.616;2.032;2022-09-25T09:04:17;0.10;;;0.10;;
12751;SDS011;6440;44.616;2.032;2022-09-25T09:07:04;0.10;;;0.10;;
12751;SDS011;6440;44.616;2.032;2022-09-25T09:09:36;0.00;;;0.00;;
12751;SDS011;6440;44.616;2.032;2022-09-25T09:12:09;0.00;;;0.00;;
12751;SDS011;6440;44.616;2.032;2022-09-25T09:14:41;0.00;;;0.00;;
12751;SDS011;6440;44.616;2.032;2022-09-25T09:17:14;0.00;;;0.00;;
12751;SDS011;6440;44.616;2.032;2022-09-25T09:19:43;0.00;;;0.00;;
12751;SDS011;6440;44.616;2.032;2022-09-25T09:22:23;0.00;;;0.00;;
12751;SDS011;6440;44.616;2.032;2022-09-25T09:24:53;0.00;;;0.00;;
12751;SDS011;6440;44.616;2.032;2022-09-25T09:30:43;0.00;;;0.00;;
12751;SDS011;6440;44.616;2.032;2022-09-25T09:33:26;0.00;;;0.00;;
12751;SDS011;6440;44.616;2.032;2022-09-25T09:36:02;0.00;;;0.00;;
12751;SDS011;6440;44.616;2.032;2022-09-25T09:38:42;0.10;;;0.10;;
12751;SDS011;6440;44.616;2.032;2022-09-25T09:41:16;0.00;;;0.00;;
12751;SDS011;6440;44.616;2.032;2022-09-25T09:43:50;0.00;;;0.00;;
12751;SDS011;6440;44.616;2.032;2022-09-25T09:49:35;0.10;;;0.10;;
12751;SDS011;6440;44.616;2.032;2022-09-25T09:52:12;0.00;;;0.00;;
12751;SDS011;6440;44.616;2.032;2022-09-25T09:55:21;0.10;;;0.10;;
12751;SDS011;6440;44.616;2.032;2022-09-25T09:57:31;0.00;;;0.00;;
12751;SDS011;6440;44.616;2.032;2022-09-25T10:00:00;0.00;;;0.00;;
12751;SDS011;6440;44.616;2.032;2022-09-25T10:02:35;0.00;;;0.00;;
12751;SDS011;6440;44.616;2.032;2022-09-25T10:05:02;0.00;;;0.00;;
12751;SDS011;6440;44.616;2.032;2022-09-25T10:07:29;0.00;;;0.00;;
12751;SDS011;6440;44.616;2.032;2022-09-25T10:09:57;0.00;;;0.00;;
12751;SDS011;6440;44.616;2.032;2022-09-25T10:12:27;0.00;;;0.00;;
12751;SDS011;6440;44.616;2.032;2022-09-25T10:15:00;0.00;;;0.00;;
12751;SDS011;6440;44.616;2.032;2022-09-25T10:17:27;0.00;;;0.00;;
12751;SDS011;6440;44.616;2.032;2022-09-25T10:19:56;0.00;;;0.00;;
12751;SDS011;6440;44.616;2.032;2022-09-25T10:22:25;0.00;;;0.00;;
12751;SDS011;6440;44.616;2.032;2022-09-25T10:24:55;0.00;;;0.00;;
12751;SDS011;6440;44.616;2.032;2022-09-25T10:27:28;0.00;;;0.00;;
12751;SDS011;6440;44.616;2.032;2022-09-25T10:30:03;0.00;;;0.00;;
12751;SDS011;6440;44.616;2.032;2022-09-25T10:32:54;0.00;;;0.00;;
12751;SDS011;6440;44.616;2.032;2022-09-25T10:35:39;0.00;;;0.00;;
12751;SDS011;6440;44.616;2.032;2022-09-25T10:38:15;0.00;;;0.00;;
12751;SDS011;6440;44.616;2.032;2022-09-25T10:41:07;0.00;;;0.00;;
12751;SDS011;6440;44.616;2.032;2022-09-25T10:43:57;0.00;;;0.00;;
12751;SDS011;6440;44.616;2.032;2022-09-25T10:46:29;0.00;;;0.00;;
12751;SDS011;6440;44.616;2.032;2022-09-25T10:49:10;0.00;;;0.00;;
12751;SDS011;6440;44.616;2.032;2022-09-25T10:51:35;0.00;;;0.00;;
12751;SDS011;6440;44.616;2.032;2022-09-25T10:54:11;0.00;;;0.00;;
12751;SDS011;6440;44.616;2.032;2022-09-25T10:56:37;0.00;;;0.00;;
12751;SDS011;6440;44.616;2.032;2022-09-25T10:59:15;0.00;;;0.00;;
12751;SDS011;6440;44.616;2.032;2022-09-25T11:01:42;0.00;;;0.00;;
12751;SDS011;6440;44.616;2.032;2022-09-25T11:04:15;0.00;;;0.00;;
12751;SDS011;6440;44.616;2.032;2022-09-25T11:06:45;0.00;;;0.00;;
12751;SDS011;6440;44.616;2.032;2022-09-25T11:09:13;0.00;;;0.00;;
12751;SDS011;6440;44.616;2.032;2022-09-25T11:11:40;0.00;;;0.00;;
12751;SDS011;6440;44.616;2.032;2022-09-25T11:14:15;0.00;;;0.00;;
12751;SDS011;6440;44.616;2.032;2022-09-25T11:16:54;0.00;;;0.00;;
12751;SDS011;6440;44.616;2.032;2022-09-25T11:19:27;0.00;;;0.00;;
12751;SDS011;6440;44.616;2.032;2022-09-25T11:21:58;0.00;;;0.00;;
12751;SDS011;6440;44.616;2.032;2022-09-25T11:24:52;0.00;;;0.00;;
12751;SDS011;6440;44.616;2.032;2022-09-25T11:27:39;0.00;;;0.00;;
12751;SDS011;6440;44.616;2.032;2022-09-25T11:30:10;0.00;;;0.00;;
12751;SDS011;6440;44.616;2.032;2022-09-25T11:35:57;0.00;;;0.00;;
12751;SDS011;6440;44.616;2.032;2022-09-25T11:38:42;0.00;;;0.00;;
12751;SDS011;6440;44.616;2.032;2022-09-25T11:41:19;0.00;;;0.00;;
12751;SDS011;6440;44.616;2.032;2022-09-25T11:44:14;0.00;;;0.00;;
12751;SDS011;6440;44.616;2.032;2022-09-25T11:47:01;0.00;;;0.00;;
12751;SDS011;6440;44.616;2.032;2022-09-25T11:49:46;0.00;;;0.00;;
12751;SDS011;6440;44.616;2.032;2022-09-25T11:52:18;0.00;;;0.00;;
12751;SDS011;6440;44.616;2.032;2022-09-25T11:55:16;0.00;;;0.00;;
12751;SDS011;6440;44.616;2.032;2022-09-25T11:57:55;0.00;;;0.00;;
12751;SDS011;6440;44.616;2.032;2022-09-25T12:00:26;0.00;;;0.00;;
12751;SDS011;6440;44.616;2.032;2022-09-25T12:09:13;0.00;;;0.00;;
12751;SDS011;6440;44.616;2.032;2022-09-25T12:11:55;0.00;;;0.00;;
12751;SDS011;6440;44.616;2.032;2022-09-25T12:14:46;0.00;;;0.00;;
12751;SDS011;6440;44.616;2.032;2022-09-25T12:17:21;0.00;;;0.00;;
12751;SDS011;6440;44.616;2.032;2022-09-25T12:20:08;0.00;;;0.00;;
12751;SDS011;6440;44.616;2.032;2022-09-25T12:22:59;0.00;;;0.00;;
12751;SDS011;6440;44.616;2.032;2022-09-25T12:25:36;0.00;;;0.00;;
12751;SDS011;6440;44.616;2.032;2022-09-25T12:31:21;0.00;;;0.00;;
12751;SDS011;6440;44.616;2.032;2022-09-25T12:36:58;0.00;;;0.00;;
12751;SDS011;6440;44.616;2.032;2022-09-25T12:39:29;0.00;;;0.00;;
12751;SDS011;6440;44.616;2.032;2022-09-25T12:42:05;0.00;;;0.00;;
12751;SDS011;6440;44.616;2.032;2022-09-25T12:44:35;0.00;;;0.00;;
12751;SDS011;6440;44.616;2.032;2022-09-25T12:47:04;0.00;;;0.00;;
12751;SDS011;6440;44.616;2.032;2022-09-25T12:49:35;0.00;;;0.00;;
12751;SDS011;6440;44.616;2.032;2022-09-25T12:52:21;0.00;;;0.00;;
12751;SDS011;6440;44.616;2.032;2022-09-25T12:54:51;0.00;;;0.00;;
12751;SDS011;6440;44.616;2.032;2022-09-25T13:00:20;0.00;;;0.00;;
12751;SDS011;6440;44.616;2.032;2022-09-25T13:02:57;0.00;;;0.00;;
12751;SDS011;6440;44.616;2.032;2022-09-25T13:06:02;0.00;;;0.00;;
12751;SDS011;6440;44.616;2.032;2022-09-25T13:08:15;0.00;;;0.00;;
12751;SDS011;6440;44.616;2.032;2022-09-25T13:10:45;0.00;;;0.00;;
12751;SDS011;6440;44.616;2.032;2022-09-25T13:13:13;0.00;;;0.00;;
12751;SDS011;6440;44.616;2.032;2022-09-25T13:15:41;0.00;;;0.00;;
12751;SDS011;6440;44.616;2.032;2022-09-25T13:18:12;0.00;;;0.00;;
12751;SDS011;6440;44.616;2.032;2022-09-25T13:20:40;0.00;;;0.00;;
12751;SDS011;6440;44.616;2.032;2022-09-25T13:23:10;0.00;;;0.00;;
12751;SDS011;6440;44.616;2.032;2022-09-25T13:25:58;0.00;;;0.00;;
12751;SDS011;6440;44.616;2.032;2022-09-25T13:28:29;0.00;;;0.00;;
12751;SDS011;6440;44.616;2.032;2022-09-25T13:31:07;0.00;;;0.00;;
12751;SDS011;6440;44.616;2.032;2022-09-25T13:33:37;0.00;;;0.00;;
12751;SDS011;6440;44.616;2.032;2022-09-25T13:36:15;0.00;;;0.00;;
12751;SDS011;6440;44.616;2.032;2022-09-25T13:38:45;0.00;;;0.00;;
12751;SDS011;6440;44.616;2.032;2022-09-25T13:41:19;0.00;;;0.00;;
12751;SDS011;6440;44.616;2.032;2022-09-25T13:43:48;0.00;;;0.00;;
12751;SDS011;6440;44.616;2.032;2022-09-25T13:46:23;0.00;;;0.00;;
12751;SDS011;6440;44.616;2.032;2022-09-25T13:48:52;0.00;;;0.00;;
12751;SDS011;6440;44.616;2.032;2022-09-25T13:51:32;0.00;;;0.00;;
12751;SDS011;6440;44.616;2.032;2022-09-25T13:54:02;0.00;;;0.00;;
12751;SDS011;6440;44.616;2.032;2022-09-25T13:59:19;0.00;;;0.00;;
12751;SDS011;6440;44.616;2.032;2022-09-25T14:01:47;0.00;;;0.00;;
12751;SDS011;6440;44.616;2.032;2022-09-25T14:04:19;0.00;;;0.00;;
12751;SDS011;6440;44.616;2.032;2022-09-25T14:06:54;0.00;;;0.00;;
12751;SDS011;6440;44.616;2.032;2022-09-25T14:09:21;0.00;;;0.00;;
12751;SDS011;6440;44.616;2.032;2022-09-25T14:11:50;0.00;;;0.00;;
12751;SDS011;6440;44.616;2.032;2022-09-25T14:14:47;0.00;;;0.00;;
12751;SDS011;6440;44.616;2.032;2022-09-25T14:17:05;0.00;;;0.00;;
12751;SDS011;6440;44.616;2.032;2022-09-25T14:19:34;0.00;;;0.00;;
12751;SDS011;6440;44.616;2.032;2022-09-25T14:22:02;0.00;;;0.00;;
12751;SDS011;6440;44.616;2.032;2022-09-25T14:24:30;0.00;;;0.00;;
12751;SDS011;6440;44.616;2.032;2022-09-25T14:26:59;0.00;;;0.00;;
12751;SDS011;6440;44.616;2.032;2022-09-25T14:29:30;0.00;;;0.00;;
12751;SDS011;6440;44.616;2.032;2022-09-25T14:35:09;0.00;;;0.00;;
12751;SDS011;6440;44.616;2.032;2022-09-25T14:38:56;0.00;;;0.00;;
12751;SDS011;6440;44.616;2.032;2022-09-25T14:40:42;0.00;;;0.00;;
12751;SDS011;6440;44.616;2.032;2022-09-25T14:43:35;0.00;;;0.00;;
12751;SDS011;6440;44.616;2.032;2022-09-25T14:46:07;0.00;;;0.00;;
12751;SDS011;6440;44.616;2.032;2022-09-25T14:48:40;0.00;;;0.00;;
12751;SDS011;6440;44.616;2.032;2022-09-25T14:51:11;0.00;;;0.00;;
12751;SDS011;6440;44.616;2.032;2022-09-25T14:53:41;0.00;;;0.00;;
12751;SDS011;6440;44.616;2.032;2022-09-25T14:56:09;0.00;;;0.00;;
12751;SDS011;6440;44.616;2.032;2022-09-25T14:58:36;0.00;;;0.00;;
12751;SDS011;6440;44.616;2.032;2022-09-25T15:01:08;0.00;;;0.00;;
12751;SDS011;6440;44.616;2.032;2022-09-25T15:03:33;0.00;;;0.00;;
12751;SDS011;6440;44.616;2.032;2022-09-25T15:06:01;0.00;;;0.00;;
12751;SDS011;6440;44.616;2.032;2022-09-25T15:08:36;0.00;;;0.00;;
12751;SDS011;6440;44.616;2.032;2022-09-25T15:13:43;0.00;;;0.00;;
12751;SDS011;6440;44.616;2.032;2022-09-25T15:16:13;0.00;;;0.00;;
12751;SDS011;6440;44.616;2.032;2022-09-25T15:18:53;0.00;;;0.00;;
12751;SDS011;6440;44.616;2.032;2022-09-25T15:21:23;0.00;;;0.00;;
12751;SDS011;6440;44.616;2.032;2022-09-25T15:23:50;0.00;;;0.00;;
12751;SDS011;6440;44.616;2.032;2022-09-25T15:26:17;0.00;;;0.00;;
12751;SDS011;6440;44.616;2.032;2022-09-25T15:28:45;0.00;;;0.00;;
12751;SDS011;6440;44.616;2.032;2022-09-25T15:31:13;0.00;;;0.00;;
12751;SDS011;6440;44.616;2.032;2022-09-25T15:33:42;0.00;;;0.00;;
12751;SDS011;6440;44.616;2.032;2022-09-25T15:36:17;0.00;;;0.00;;
12751;SDS011;6440;44.616;2.032;2022-09-25T15:38:51;0.00;;;0.00;;
12751;SDS011;6440;44.616;2.032;2022-09-25T15:41:19;0.00;;;0.00;;
12751;SDS011;6440;44.616;2.032;2022-09-25T15:43:47;0.00;;;0.00;;
12751;SDS011;6440;44.616;2.032;2022-09-25T15:49:12;0.00;;;0.00;;
12751;SDS011;6440;44.616;2.032;2022-09-25T15:51:51;0.00;;;0.00;;
12751;SDS011;6440;44.616;2.032;2022-09-25T15:54:31;0.00;;;0.00;;
12751;SDS011;6440;44.616;2.032;2022-09-25T15:57:06;0.00;;;0.00;;
12751;SDS011;6440;44.616;2.032;2022-09-25T15:59:37;0.00;;;0.00;;
12751;SDS011;6440;44.616;2.032;2022-09-25T16:02:08;0.00;;;0.00;;
12751;SDS011;6440;44.616;2.032;2022-09-25T16:04:45;0.00;;;0.00;;
12751;SDS011;6440;44.616;2.032;2022-09-25T16:07:22;0.00;;;0.00;;
12751;SDS011;6440;44.616;2.032;2022-09-25T16:09:55;0.00;;;0.00;;